sensor_id;sensor_type;location;lat;lon;timestamp;temperature;humidity
26990;DHT22;14537;47.788;11.858;2023-07-16T00:00:51;22.00;99.90
26990;DHT22;14537;47.788;11.858;2023-07-16T00:03:17;22.10;99.90
26990;DHT22;14537;47.788;11.858;2023-07-16T00:05:42;22.10;99.90
26990;DHT22;14537;47.788;11.858;2023-07-16T00:08:08;22.10;99.90
26990;DHT22;14537;47.788;11.858;2023-07-16T00:10:37;22.00;99.90
26990;DHT22;14537;47.788;11.858;2023-07-16T00:13:05;21.90;99.90
26990;DHT22;14537;47.788;11.858;2023-07-16T00:15:31;21.80;99.90
26990;DHT22;14537;47.788;11.858;2023-07-16T00:17:57;21.70;99.90
26990;DHT22;14537;47.788;11.858;2023-07-16T00:20:22;21.60;99.90
26990;DHT22;14537;47.788;11.858;2023-07-16T00:22:51;21.50;99.90
26990;DHT22;14537;47.788;11.858;2023-07-16T00:25:17;21.50;99.90
26990;DHT22;14537;47.788;11.858;2023-07-16T00:27:43;21.40;99.90
26990;DHT22;14537;47.788;11.858;2023-07-16T00:30:09;21.40;99.90
26990;DHT22;14537;47.788;11.858;2023-07-16T00:32:34;21.30;99.90
26990;DHT22;14537;47.788;11.858;2023-07-16T00:35:03;21.20;99.90
26990;DHT22;14537;47.788;11.858;2023-07-16T00:37:29;21.20;99.90
26990;DHT22;14537;47.788;11.858;2023-07-16T00:39:54;21.20;99.90
26990;DHT22;14537;47.788;11.858;2023-07-16T00:42:20;21.10;99.90
26990;DHT22;14537;47.788;11.858;2023-07-16T00:44:45;21.10;99.90
26990;DHT22;14537;47.788;11.858;2023-07-16T00:47:11;21.00;99.90
26990;DHT22;14537;47.788;11.858;2023-07-16T00:49:38;20.90;99.90
26990;DHT22;14537;47.788;11.858;2023-07-16T00:52:06;20.90;99.90
26990;DHT22;14537;47.788;11.858;2023-07-16T00:54:33;20.80;99.90
26990;DHT22;14537;47.788;11.858;2023-07-16T00:56:59;20.80;99.90
26990;DHT22;14537;47.788;11.858;2023-07-16T00:59:24;20.70;99.90
26990;DHT22;14537;47.788;11.858;2023-07-16T01:01:50;20.80;99.90
26990;DHT22;14537;47.788;11.858;2023-07-16T01:04:16;20.70;99.90
26990;DHT22;14537;47.788;11.858;2023-07-16T01:06:47;20.70;99.90
26990;DHT22;14537;47.788;11.858;2023-07-16T01:09:16;20.70;99.90
26990;DHT22;14537;47.788;11.858;2023-07-16T01:11:46;20.70;99.90
26990;DHT22;14537;47.788;11.858;2023-07-16T01:14:13;20.70;99.90
26990;DHT22;14537;47.788;11.858;2023-07-16T01:16:41;20.70;99.90
26990;DHT22;14537;47.788;11.858;2023-07-16T01:19:07;20.70;99.90
26990;DHT22;14537;47.788;11.858;2023-07-16T01:21:48;20.60;99.90
26990;DHT22;14537;47.788;11.858;2023-07-16T01:29:36;20.40;99.90
26990;DHT22;14537;47.788;11.858;2023-07-16T01:32:05;20.50;99.90
26990;DHT22;14537;47.788;11.858;2023-07-16T01:34:32;20.40;99.90
26990;DHT22;14537;47.788;11.858;2023-07-16T01:37:02;20.40;99.90
26990;DHT22;14537;47.788;11.858;2023-07-16T01:39:30;20.30;99.90
26990;DHT22;14537;47.788;11.858;2023-07-16T01:41:55;20.30;99.90
26990;DHT22;14537;47.788;11.858;2023-07-16T01:44:21;20.20;99.90
26990;DHT22;14537;47.788;11.858;2023-07-16T01:47:24;20.30;99.90
26990;DHT22;14537;47.788;11.858;2023-07-16T01:49:54;20.30;99.90
26990;DHT22;14537;47.788;11.858;2023-07-16T01:52:20;20.20;99.90
26990;DHT22;14537;47.788;11.858;2023-07-16T01:54:46;20.20;99.90
26990;DHT22;14537;47.788;11.858;2023-07-16T01:57:11;20.20;99.90
26990;DHT22;14537;47.788;11.858;2023-07-16T01:59:37;20.20;99.90
26990;DHT22;14537;47.788;11.858;2023-07-16T02:02:03;20.20;99.90
26990;DHT22;14537;47.788;11.858;2023-07-16T02:04:29;20.20;99.90
26990;DHT22;14537;47.788;11.858;2023-07-16T02:06:54;20.10;99.90
26990;DHT22;14537;47.788;11.858;2023-07-16T02:09:22;20.20;99.90
26990;DHT22;14537;47.788;11.858;2023-07-16T02:11:47;20.30;99.90
26990;DHT22;14537;47.788;11.858;2023-07-16T02:14:13;20.30;99.90
26990;DHT22;14537;47.788;11.858;2023-07-16T02:16:40;20.30;99.90
26990;DHT22;14537;47.788;11.858;2023-07-16T02:19:05;20.30;99.90
26990;DHT22;14537;47.788;11.858;2023-07-16T02:21:31;20.30;99.90
26990;DHT22;14537;47.788;11.858;2023-07-16T02:23:56;20.20;99.90
26990;DHT22;14537;47.788;11.858;2023-07-16T02:26:22;20.30;99.90
26990;DHT22;14537;47.788;11.858;2023-07-16T02:28:48;20.20;99.90
26990;DHT22;14537;47.788;11.858;2023-07-16T02:31:13;20.10;99.90
26990;DHT22;14537;47.788;11.858;2023-07-16T02:33:39;20.10;99.90
26990;DHT22;14537;47.788;11.858;2023-07-16T02:36:05;20.10;99.90
26990;DHT22;14537;47.788;11.858;2023-07-16T02:38:31;20.10;99.90
26990;DHT22;14537;47.788;11.858;2023-07-16T02:40:57;20.10;99.90
26990;DHT22;14537;47.788;11.858;2023-07-16T02:43:22;20.10;99.90
26990;DHT22;14537;47.788;11.858;2023-07-16T02:45:48;20.10;99.90
26990;DHT22;14537;47.788;11.858;2023-07-16T02:48:14;20.20;99.90
26990;DHT22;14537;47.788;11.858;2023-07-16T02:50:39;20.10;99.90
26990;DHT22;14537;47.788;11.858;2023-07-16T02:53:06;20.10;99.90
26990;DHT22;14537;47.788;11.858;2023-07-16T02:55:32;20.10;99.90
26990;DHT22;14537;47.788;11.858;2023-07-16T02:57:57;20.10;99.90
26990;DHT22;14537;47.788;11.858;2023-07-16T03:00:24;20.10;99.90
26990;DHT22;14537;47.788;11.858;2023-07-16T03:02:49;20.10;99.90
26990;DHT22;14537;47.788;11.858;2023-07-16T03:05:18;20.10;99.90
26990;DHT22;14537;47.788;11.858;2023-07-16T03:07:43;20.10;99.90
26990;DHT22;14537;47.788;11.858;2023-07-16T03:10:09;20.10;99.90
26990;DHT22;14537;47.788;11.858;2023-07-16T03:12:35;20.10;99.90
26990;DHT22;14537;47.788;11.858;2023-07-16T03:15:01;20.10;99.90
26990;DHT22;14537;47.788;11.858;2023-07-16T03:17:27;20.10;99.90
26990;DHT22;14537;47.788;11.858;2023-07-16T03:19:52;20.10;99.90
26990;DHT22;14537;47.788;11.858;2023-07-16T03:22:18;20.10;99.90
26990;DHT22;14537;47.788;11.858;2023-07-16T03:24:43;20.20;99.90
26990;DHT22;14537;47.788;11.858;2023-07-16T03:27:09;20.20;99.90
26990;DHT22;14537;47.788;11.858;2023-07-16T03:29:34;20.20;99.90
26990;DHT22;14537;47.788;11.858;2023-07-16T03:32:00;20.30;99.90
26990;DHT22;14537;47.788;11.858;2023-07-16T03:34:26;20.20;99.90
26990;DHT22;14537;47.788;11.858;2023-07-16T03:36:51;20.20;99.90
26990;DHT22;14537;47.788;11.858;2023-07-16T03:39:17;20.20;99.90
26990;DHT22;14537;47.788;11.858;2023-07-16T03:41:43;20.20;99.90
26990;DHT22;14537;47.788;11.858;2023-07-16T03:44:08;20.20;99.90
26990;DHT22;14537;47.788;11.858;2023-07-16T03:46:34;20.20;99.90
26990;DHT22;14537;47.788;11.858;2023-07-16T03:49:00;20.20;99.90
26990;DHT22;14537;47.788;11.858;2023-07-16T03:51:26;20.20;99.90
26990;DHT22;14537;47.788;11.858;2023-07-16T03:53:51;20.20;99.90
26990;DHT22;14537;47.788;11.858;2023-07-16T03:56:17;20.20;99.90
26990;DHT22;14537;47.788;11.858;2023-07-16T03:58:43;20.20;99.90
26990;DHT22;14537;47.788;11.858;2023-07-16T04:01:09;20.30;99.90
26990;DHT22;14537;47.788;11.858;2023-07-16T04:03:35;20.30;99.90
26990;DHT22;14537;47.788;11.858;2023-07-16T04:06:04;20.30;99.90
26990;DHT22;14537;47.788;11.858;2023-07-16T04:08:31;20.30;99.90
26990;DHT22;14537;47.788;11.858;2023-07-16T04:10:56;20.30;99.90
26990;DHT22;14537;47.788;11.858;2023-07-16T04:13:22;20.30;99.90
26990;DHT22;14537;47.788;11.858;2023-07-16T04:15:48;20.30;99.90
26990;DHT22;14537;47.788;11.858;2023-07-16T04:18:13;20.30;99.90
26990;DHT22;14537;47.788;11.858;2023-07-16T04:20:39;20.30;99.90
26990;DHT22;14537;47.788;11.858;2023-07-16T04:23:04;20.30;99.90
26990;DHT22;14537;47.788;11.858;2023-07-16T04:25:30;20.30;99.90
26990;DHT22;14537;47.788;11.858;2023-07-16T04:27:56;20.30;99.90
26990;DHT22;14537;47.788;11.858;2023-07-16T04:30:22;20.40;99.90
26990;DHT22;14537;47.788;11.858;2023-07-16T04:32:48;20.30;99.90
26990;DHT22;14537;47.788;11.858;2023-07-16T04:35:13;20.30;99.90
26990;DHT22;14537;47.788;11.858;2023-07-16T04:37:39;20.30;99.90
26990;DHT22;14537;47.788;11.858;2023-07-16T04:40:05;20.30;99.90
26990;DHT22;14537;47.788;11.858;2023-07-16T04:42:31;20.30;99.90
26990;DHT22;14537;47.788;11.858;2023-07-16T04:44:57;20.30;99.90
26990;DHT22;14537;47.788;11.858;2023-07-16T04:47:22;20.30;99.90
26990;DHT22;14537;47.788;11.858;2023-07-16T04:49:48;20.40;99.90
26990;DHT22;14537;47.788;11.858;2023-07-16T04:52:13;20.40;99.90
26990;DHT22;14537;47.788;11.858;2023-07-16T04:54:39;20.30;99.90
26990;DHT22;14537;47.788;11.858;2023-07-16T04:57:08;20.30;99.90
26990;DHT22;14537;47.788;11.858;2023-07-16T04:59:34;20.30;99.90
26990;DHT22;14537;47.788;11.858;2023-07-16T05:01:59;20.30;99.90
26990;DHT22;14537;47.788;11.858;2023-07-16T05:04:25;20.30;99.90
26990;DHT22;14537;47.788;11.858;2023-07-16T05:06:51;20.20;99.90
26990;DHT22;14537;47.788;11.858;2023-07-16T05:09:17;20.20;99.90
26990;DHT22;14537;47.788;11.858;2023-07-16T05:11:43;20.20;99.90
26990;DHT22;14537;47.788;11.858;2023-07-16T05:14:08;20.20;99.90
26990;DHT22;14537;47.788;11.858;2023-07-16T05:16:34;20.10;99.90
26990;DHT22;14537;47.788;11.858;2023-07-16T05:19:00;19.90;99.90
26990;DHT22;14537;47.788;11.858;2023-07-16T05:21:25;19.90;99.90
26990;DHT22;14537;47.788;11.858;2023-07-16T05:23:51;19.80;99.90
26990;DHT22;14537;47.788;11.858;2023-07-16T05:26:16;19.70;99.90
26990;DHT22;14537;47.788;11.858;2023-07-16T05:28:42;19.70;99.90
26990;DHT22;14537;47.788;11.858;2023-07-16T05:31:08;19.70;99.90
26990;DHT22;14537;47.788;11.858;2023-07-16T05:33:33;19.70;99.90
26990;DHT22;14537;47.788;11.858;2023-07-16T05:35:59;19.50;99.90
26990;DHT22;14537;47.788;11.858;2023-07-16T05:38:25;19.50;99.90
26990;DHT22;14537;47.788;11.858;2023-07-16T05:40:50;19.50;99.90
26990;DHT22;14537;47.788;11.858;2023-07-16T05:43:16;19.40;99.90
26990;DHT22;14537;47.788;11.858;2023-07-16T05:45:42;19.40;99.90
26990;DHT22;14537;47.788;11.858;2023-07-16T05:48:07;19.30;99.90
26990;DHT22;14537;47.788;11.858;2023-07-16T05:50:33;19.20;99.90
26990;DHT22;14537;47.788;11.858;2023-07-16T05:52:59;19.40;99.90
26990;DHT22;14537;47.788;11.858;2023-07-16T05:55:24;19.40;99.90
26990;DHT22;14537;47.788;11.858;2023-07-16T05:57:50;19.40;99.90
26990;DHT22;14537;47.788;11.858;2023-07-16T06:00:16;19.40;99.90
26990;DHT22;14537;47.788;11.858;2023-07-16T06:02:42;19.40;99.90
26990;DHT22;14537;47.788;11.858;2023-07-16T06:05:08;19.50;99.90
26990;DHT22;14537;47.788;11.858;2023-07-16T06:07:34;19.50;99.90
26990;DHT22;14537;47.788;11.858;2023-07-16T06:10:00;19.60;99.90
26990;DHT22;14537;47.788;11.858;2023-07-16T06:12:25;19.60;99.90
26990;DHT22;14537;47.788;11.858;2023-07-16T06:14:51;19.70;99.90
26990;DHT22;14537;47.788;11.858;2023-07-16T06:17:16;19.70;99.90
26990;DHT22;14537;47.788;11.858;2023-07-16T06:19:42;19.60;99.90
26990;DHT22;14537;47.788;11.858;2023-07-16T06:22:08;19.50;99.90
26990;DHT22;14537;47.788;11.858;2023-07-16T06:24:34;19.60;99.90
26990;DHT22;14537;47.788;11.858;2023-07-16T06:27:00;19.60;99.90
26990;DHT22;14537;47.788;11.858;2023-07-16T06:29:26;19.60;99.90
26990;DHT22;14537;47.788;11.858;2023-07-16T06:31:56;19.70;99.90
26990;DHT22;14537;47.788;11.858;2023-07-16T06:34:22;19.80;99.90
26990;DHT22;14537;47.788;11.858;2023-07-16T06:36:48;19.80;99.90
26990;DHT22;14537;47.788;11.858;2023-07-16T06:39:13;19.90;99.90
26990;DHT22;14537;47.788;11.858;2023-07-16T06:41:39;20.00;99.90
26990;DHT22;14537;47.788;11.858;2023-07-16T06:44:04;20.10;99.90
26990;DHT22;14537;47.788;11.858;2023-07-16T06:46:30;20.10;99.90
26990;DHT22;14537;47.788;11.858;2023-07-16T06:48:56;20.20;99.90
26990;DHT22;14537;47.788;11.858;2023-07-16T06:51:21;20.20;99.90
26990;DHT22;14537;47.788;11.858;2023-07-16T06:53:47;20.20;99.90
26990;DHT22;14537;47.788;11.858;2023-07-16T06:56:13;20.30;99.90
26990;DHT22;14537;47.788;11.858;2023-07-16T06:58:38;20.40;99.90
26990;DHT22;14537;47.788;11.858;2023-07-16T07:01:04;20.50;99.90
26990;DHT22;14537;47.788;11.858;2023-07-16T07:03:29;20.70;99.90
26990;DHT22;14537;47.788;11.858;2023-07-16T07:05:55;20.80;99.90
26990;DHT22;14537;47.788;11.858;2023-07-16T07:08:20;21.00;99.90
26990;DHT22;14537;47.788;11.858;2023-07-16T07:10:48;21.20;99.90
26990;DHT22;14537;47.788;11.858;2023-07-16T07:13:14;21.40;99.90
26990;DHT22;14537;47.788;11.858;2023-07-16T07:15:41;21.40;99.90
26990;DHT22;14537;47.788;11.858;2023-07-16T07:18:07;21.40;99.90
26990;DHT22;14537;47.788;11.858;2023-07-16T07:20:33;21.50;99.90
26990;DHT22;14537;47.788;11.858;2023-07-16T07:22:58;21.50;99.90
26990;DHT22;14537;47.788;11.858;2023-07-16T07:25:27;21.60;99.90
26990;DHT22;14537;47.788;11.858;2023-07-16T07:27:53;21.70;99.90
26990;DHT22;14537;47.788;11.858;2023-07-16T07:30:18;21.60;99.90
26990;DHT22;14537;47.788;11.858;2023-07-16T07:32:45;21.50;99.90
26990;DHT22;14537;47.788;11.858;2023-07-16T07:35:10;21.50;99.90
26990;DHT22;14537;47.788;11.858;2023-07-16T07:37:36;21.50;99.90
26990;DHT22;14537;47.788;11.858;2023-07-16T07:40:02;21.60;99.90
26990;DHT22;14537;47.788;11.858;2023-07-16T07:42:29;21.60;99.90
26990;DHT22;14537;47.788;11.858;2023-07-16T07:44:55;21.50;99.90
26990;DHT22;14537;47.788;11.858;2023-07-16T07:47:21;21.70;99.90
26990;DHT22;14537;47.788;11.858;2023-07-16T07:49:46;21.80;99.90
26990;DHT22;14537;47.788;11.858;2023-07-16T07:52:12;21.80;99.90
26990;DHT22;14537;47.788;11.858;2023-07-16T07:54:38;21.90;99.90
26990;DHT22;14537;47.788;11.858;2023-07-16T07:57:04;21.90;99.90
26990;DHT22;14537;47.788;11.858;2023-07-16T07:59:30;22.00;99.90
26990;DHT22;14537;47.788;11.858;2023-07-16T08:01:59;22.10;99.90
26990;DHT22;14537;47.788;11.858;2023-07-16T08:04:27;22.20;99.90
26990;DHT22;14537;47.788;11.858;2023-07-16T08:06:54;22.20;99.90
26990;DHT22;14537;47.788;11.858;2023-07-16T08:09:20;22.10;99.90
26990;DHT22;14537;47.788;11.858;2023-07-16T08:11:47;22.00;99.90
26990;DHT22;14537;47.788;11.858;2023-07-16T08:14:12;22.10;99.90
26990;DHT22;14537;47.788;11.858;2023-07-16T08:16:38;22.30;99.90
26990;DHT22;14537;47.788;11.858;2023-07-16T08:19:03;22.40;99.90
26990;DHT22;14537;47.788;11.858;2023-07-16T08:21:29;22.60;99.90
26990;DHT22;14537;47.788;11.858;2023-07-16T08:23:55;22.60;99.90
26990;DHT22;14537;47.788;11.858;2023-07-16T08:26:20;22.30;99.90
26990;DHT22;14537;47.788;11.858;2023-07-16T08:28:46;22.40;99.90
26990;DHT22;14537;47.788;11.858;2023-07-16T08:31:12;22.50;99.90
26990;DHT22;14537;47.788;11.858;2023-07-16T08:33:40;22.50;99.90
26990;DHT22;14537;47.788;11.858;2023-07-16T08:36:06;22.30;99.90
26990;DHT22;14537;47.788;11.858;2023-07-16T08:38:32;22.40;99.90
26990;DHT22;14537;47.788;11.858;2023-07-16T08:40:59;22.50;99.90
26990;DHT22;14537;47.788;11.858;2023-07-16T08:43:25;22.40;99.90
26990;DHT22;14537;47.788;11.858;2023-07-16T08:45:50;22.60;99.90
26990;DHT22;14537;47.788;11.858;2023-07-16T08:48:17;22.70;99.90
26990;DHT22;14537;47.788;11.858;2023-07-16T08:50:48;22.60;99.90
26990;DHT22;14537;47.788;11.858;2023-07-16T08:53:18;22.70;99.90
26990;DHT22;14537;47.788;11.858;2023-07-16T08:55:47;22.90;99.90
26990;DHT22;14537;47.788;11.858;2023-07-16T08:58:14;22.70;99.90
26990;DHT22;14537;47.788;11.858;2023-07-16T09:00:44;22.80;99.90
26990;DHT22;14537;47.788;11.858;2023-07-16T09:03:13;23.00;99.90
26990;DHT22;14537;47.788;11.858;2023-07-16T09:05:42;23.00;99.90
26990;DHT22;14537;47.788;11.858;2023-07-16T09:08:08;22.90;99.90
26990;DHT22;14537;47.788;11.858;2023-07-16T09:10:34;22.90;99.90
26990;DHT22;14537;47.788;11.858;2023-07-16T09:12:59;22.80;99.90
26990;DHT22;14537;47.788;11.858;2023-07-16T09:15:27;22.50;99.90
26990;DHT22;14537;47.788;11.858;2023-07-16T09:17:54;22.50;99.90
26990;DHT22;14537;47.788;11.858;2023-07-16T09:20:20;22.60;99.90
26990;DHT22;14537;47.788;11.858;2023-07-16T09:22:47;22.50;99.90
26990;DHT22;14537;47.788;11.858;2023-07-16T09:25:13;22.60;99.90
26990;DHT22;14537;47.788;11.858;2023-07-16T09:27:38;22.70;99.90
26990;DHT22;14537;47.788;11.858;2023-07-16T09:30:05;22.90;99.90
26990;DHT22;14537;47.788;11.858;2023-07-16T09:32:35;23.00;99.90
26990;DHT22;14537;47.788;11.858;2023-07-16T09:35:05;23.10;99.90
26990;DHT22;14537;47.788;11.858;2023-07-16T09:37:31;23.10;99.90
26990;DHT22;14537;47.788;11.858;2023-07-16T09:39:57;23.20;99.90
26990;DHT22;14537;47.788;11.858;2023-07-16T09:42:23;23.20;99.90
26990;DHT22;14537;47.788;11.858;2023-07-16T09:44:49;23.20;99.90
26990;DHT22;14537;47.788;11.858;2023-07-16T09:47:18;23.20;99.90
26990;DHT22;14537;47.788;11.858;2023-07-16T09:49:43;23.00;99.90
26990;DHT22;14537;47.788;11.858;2023-07-16T09:52:11;23.10;99.90
26990;DHT22;14537;47.788;11.858;2023-07-16T09:54:39;23.00;99.90
26990;DHT22;14537;47.788;11.858;2023-07-16T09:57:06;22.80;99.90
26990;DHT22;14537;47.788;11.858;2023-07-16T09:59:33;22.70;99.90
26990;DHT22;14537;47.788;11.858;2023-07-16T10:01:59;22.80;99.90
26990;DHT22;14537;47.788;11.858;2023-07-16T10:04:25;22.90;99.90
26990;DHT22;14537;47.788;11.858;2023-07-16T10:07:00;22.90;99.90
26990;DHT22;14537;47.788;11.858;2023-07-16T10:14:43;22.90;99.90
26990;DHT22;14537;47.788;11.858;2023-07-16T10:17:17;22.70;99.90
26990;DHT22;14537;47.788;11.858;2023-07-16T10:22:14;22.60;99.90
26990;DHT22;14537;47.788;11.858;2023-07-16T10:24:40;22.70;99.90
26990;DHT22;14537;47.788;11.858;2023-07-16T10:27:07;23.00;99.90
26990;DHT22;14537;47.788;11.858;2023-07-16T10:29:32;23.20;99.90
26990;DHT22;14537;47.788;11.858;2023-07-16T10:31:58;23.40;99.90
26990;DHT22;14537;47.788;11.858;2023-07-16T10:34:24;23.60;99.90
26990;DHT22;14537;47.788;11.858;2023-07-16T10:36:51;23.60;99.90
26990;DHT22;14537;47.788;11.858;2023-07-16T10:39:17;23.60;99.90
26990;DHT22;14537;47.788;11.858;2023-07-16T10:41:43;23.90;99.90
26990;DHT22;14537;47.788;11.858;2023-07-16T10:44:08;24.10;99.90
26990;DHT22;14537;47.788;11.858;2023-07-16T10:46:36;24.30;99.90
26990;DHT22;14537;47.788;11.858;2023-07-16T10:49:02;24.30;99.90
26990;DHT22;14537;47.788;11.858;2023-07-16T10:51:28;24.30;99.90
26990;DHT22;14537;47.788;11.858;2023-07-16T10:53:57;24.40;99.90
26990;DHT22;14537;47.788;11.858;2023-07-16T10:56:23;24.50;99.90
26990;DHT22;14537;47.788;11.858;2023-07-16T10:58:49;24.60;99.90
26990;DHT22;14537;47.788;11.858;2023-07-16T11:01:15;24.80;99.90
26990;DHT22;14537;47.788;11.858;2023-07-16T11:03:40;25.00;99.90
26990;DHT22;14537;47.788;11.858;2023-07-16T11:06:08;25.10;99.90
26990;DHT22;14537;47.788;11.858;2023-07-16T11:08:33;25.00;99.90
26990;DHT22;14537;47.788;11.858;2023-07-16T11:10:59;25.10;99.90
26990;DHT22;14537;47.788;11.858;2023-07-16T11:13:29;25.10;99.90
26990;DHT22;14537;47.788;11.858;2023-07-16T11:15:56;25.20;99.90
26990;DHT22;14537;47.788;11.858;2023-07-16T11:18:24;25.30;99.90
26990;DHT22;14537;47.788;11.858;2023-07-16T11:20:51;25.40;99.90
26990;DHT22;14537;47.788;11.858;2023-07-16T11:23:18;25.40;99.90
26990;DHT22;14537;47.788;11.858;2023-07-16T11:25:51;25.60;99.90
26990;DHT22;14537;47.788;11.858;2023-07-16T11:28:17;25.50;99.90
26990;DHT22;14537;47.788;11.858;2023-07-16T11:30:42;25.50;99.90
26990;DHT22;14537;47.788;11.858;2023-07-16T11:33:11;25.60;99.90
26990;DHT22;14537;47.788;11.858;2023-07-16T11:35:37;25.50;99.90
26990;DHT22;14537;47.788;11.858;2023-07-16T11:38:06;25.60;99.90
26990;DHT22;14537;47.788;11.858;2023-07-16T11:40:36;25.90;99.90
26990;DHT22;14537;47.788;11.858;2023-07-16T11:43:11;26.20;99.90
26990;DHT22;14537;47.788;11.858;2023-07-16T11:45:37;26.20;99.90
26990;DHT22;14537;47.788;11.858;2023-07-16T11:48:04;26.10;99.90
26990;DHT22;14537;47.788;11.858;2023-07-16T11:50:30;26.00;99.90
26990;DHT22;14537;47.788;11.858;2023-07-16T11:53:00;26.10;99.90
26990;DHT22;14537;47.788;11.858;2023-07-16T11:55:27;26.20;99.90
26990;DHT22;14537;47.788;11.858;2023-07-16T11:57:52;26.50;99.90
26990;DHT22;14537;47.788;11.858;2023-07-16T12:00:18;26.30;99.90
26990;DHT22;14537;47.788;11.858;2023-07-16T12:02:44;26.20;99.90
26990;DHT22;14537;47.788;11.858;2023-07-16T12:05:20;26.00;99.90
26990;DHT22;14537;47.788;11.858;2023-07-16T12:07:45;25.90;99.90
26990;DHT22;14537;47.788;11.858;2023-07-16T12:10:11;25.80;99.90
26990;DHT22;14537;47.788;11.858;2023-07-16T12:12:37;25.70;99.90
26990;DHT22;14537;47.788;11.858;2023-07-16T12:15:04;25.10;99.90
26990;DHT22;14537;47.788;11.858;2023-07-16T12:17:30;25.00;99.90
26990;DHT22;14537;47.788;11.858;2023-07-16T12:19:55;25.20;99.90
26990;DHT22;14537;47.788;11.858;2023-07-16T12:22:21;25.20;99.90
26990;DHT22;14537;47.788;11.858;2023-07-16T12:24:48;25.20;99.90
26990;DHT22;14537;47.788;11.858;2023-07-16T12:27:14;25.30;99.90
26990;DHT22;14537;47.788;11.858;2023-07-16T12:29:40;25.30;99.90
26990;DHT22;14537;47.788;11.858;2023-07-16T12:32:06;25.40;99.90
26990;DHT22;14537;47.788;11.858;2023-07-16T12:34:33;25.50;99.90
26990;DHT22;14537;47.788;11.858;2023-07-16T12:36:59;25.70;99.90
26990;DHT22;14537;47.788;11.858;2023-07-16T12:39:24;25.80;99.90
26990;DHT22;14537;47.788;11.858;2023-07-16T12:41:50;25.70;99.90
26990;DHT22;14537;47.788;11.858;2023-07-16T12:44:16;25.80;99.90
26990;DHT22;14537;47.788;11.858;2023-07-16T12:46:41;25.90;99.90
26990;DHT22;14537;47.788;11.858;2023-07-16T12:49:07;26.00;99.90
26990;DHT22;14537;47.788;11.858;2023-07-16T12:51:32;26.10;99.90
26990;DHT22;14537;47.788;11.858;2023-07-16T12:53:58;25.90;99.90
26990;DHT22;14537;47.788;11.858;2023-07-16T12:56:26;25.90;99.90
26990;DHT22;14537;47.788;11.858;2023-07-16T12:58:51;26.00;99.90
26990;DHT22;14537;47.788;11.858;2023-07-16T13:01:17;26.20;99.90
26990;DHT22;14537;47.788;11.858;2023-07-16T13:03:43;25.90;99.90
26990;DHT22;14537;47.788;11.858;2023-07-16T13:06:08;25.70;99.90
26990;DHT22;14537;47.788;11.858;2023-07-16T13:08:34;25.70;99.90
26990;DHT22;14537;47.788;11.858;2023-07-16T13:11:00;25.70;99.90
26990;DHT22;14537;47.788;11.858;2023-07-16T13:13:26;25.80;99.90
26990;DHT22;14537;47.788;11.858;2023-07-16T13:15:52;25.80;99.90
26990;DHT22;14537;47.788;11.858;2023-07-16T13:18:17;25.70;99.90
26990;DHT22;14537;47.788;11.858;2023-07-16T13:20:43;25.60;99.90
26990;DHT22;14537;47.788;11.858;2023-07-16T13:23:09;25.60;99.90
26990;DHT22;14537;47.788;11.858;2023-07-16T13:25:36;25.60;99.90
26990;DHT22;14537;47.788;11.858;2023-07-16T13:28:04;25.70;99.90
26990;DHT22;14537;47.788;11.858;2023-07-16T13:30:30;25.80;99.90
26990;DHT22;14537;47.788;11.858;2023-07-16T13:32:55;25.70;99.90
26990;DHT22;14537;47.788;11.858;2023-07-16T13:35:22;25.70;99.90
26990;DHT22;14537;47.788;11.858;2023-07-16T13:37:48;25.70;99.90
26990;DHT22;14537;47.788;11.858;2023-07-16T13:40:13;25.40;99.90
26990;DHT22;14537;47.788;11.858;2023-07-16T13:42:39;25.30;99.90
26990;DHT22;14537;47.788;11.858;2023-07-16T13:45:06;25.10;99.90
26990;DHT22;14537;47.788;11.858;2023-07-16T13:47:31;25.00;99.90
26990;DHT22;14537;47.788;11.858;2023-07-16T13:49:57;25.10;99.90
26990;DHT22;14537;47.788;11.858;2023-07-16T13:52:23;25.10;99.90
26990;DHT22;14537;47.788;11.858;2023-07-16T13:54:48;25.10;99.90
26990;DHT22;14537;47.788;11.858;2023-07-16T13:57:14;25.10;99.90
26990;DHT22;14537;47.788;11.858;2023-07-16T13:59:40;25.10;99.90
26990;DHT22;14537;47.788;11.858;2023-07-16T14:02:05;25.00;99.90
26990;DHT22;14537;47.788;11.858;2023-07-16T14:04:31;25.00;99.90
26990;DHT22;14537;47.788;11.858;2023-07-16T14:06:59;25.00;99.90
26990;DHT22;14537;47.788;11.858;2023-07-16T14:09:24;24.90;99.90
26990;DHT22;14537;47.788;11.858;2023-07-16T14:11:50;24.80;99.90
26990;DHT22;14537;47.788;11.858;2023-07-16T14:14:16;24.70;99.90
26990;DHT22;14537;47.788;11.858;2023-07-16T14:16:42;24.60;99.90
26990;DHT22;14537;47.788;11.858;2023-07-16T14:19:09;24.50;99.90
26990;DHT22;14537;47.788;11.858;2023-07-16T14:21:35;24.60;99.90
26990;DHT22;14537;47.788;11.858;2023-07-16T14:24:00;24.70;99.90
26990;DHT22;14537;47.788;11.858;2023-07-16T14:26:26;24.60;99.90
26990;DHT22;14537;47.788;11.858;2023-07-16T14:28:52;24.50;99.90
26990;DHT22;14537;47.788;11.858;2023-07-16T14:31:17;24.30;99.90
26990;DHT22;14537;47.788;11.858;2023-07-16T14:33:43;24.30;99.90
26990;DHT22;14537;47.788;11.858;2023-07-16T14:36:09;24.30;99.90
26990;DHT22;14537;47.788;11.858;2023-07-16T14:38:34;24.30;99.90
26990;DHT22;14537;47.788;11.858;2023-07-16T14:41:00;24.20;99.90
26990;DHT22;14537;47.788;11.858;2023-07-16T14:43:26;24.30;99.90
26990;DHT22;14537;47.788;11.858;2023-07-16T14:45:51;24.30;99.90
26990;DHT22;14537;47.788;11.858;2023-07-16T14:48:17;24.40;99.90
26990;DHT22;14537;47.788;11.858;2023-07-16T14:50:42;24.30;99.90
26990;DHT22;14537;47.788;11.858;2023-07-16T14:53:08;24.30;99.90
26990;DHT22;14537;47.788;11.858;2023-07-16T14:55:34;24.30;99.90
26990;DHT22;14537;47.788;11.858;2023-07-16T14:57:59;24.40;99.90
26990;DHT22;14537;47.788;11.858;2023-07-16T15:00:25;24.40;99.90
26990;DHT22;14537;47.788;11.858;2023-07-16T15:02:51;24.50;99.90
26990;DHT22;14537;47.788;11.858;2023-07-16T15:05:17;24.40;99.90
26990;DHT22;14537;47.788;11.858;2023-07-16T15:07:43;24.20;99.90
26990;DHT22;14537;47.788;11.858;2023-07-16T15:10:09;24.10;99.90
26990;DHT22;14537;47.788;11.858;2023-07-16T15:12:35;24.20;99.90
26990;DHT22;14537;47.788;11.858;2023-07-16T15:15:00;24.10;99.90
26990;DHT22;14537;47.788;11.858;2023-07-16T15:17:26;24.10;99.90
26990;DHT22;14537;47.788;11.858;2023-07-16T15:19:53;24.10;99.90
26990;DHT22;14537;47.788;11.858;2023-07-16T15:22:18;24.10;99.90